createdAt,value
2022-12-28T00:04:13.511Z,5.80
2022-12-28T00:09:15.234Z,5.90
2022-12-28T00:14:16.904Z,5.90
2022-12-28T00:19:18.677Z,6.00
2022-12-28T00:24:25.061Z,6.10
2022-12-28T00:29:26.692Z,6.10
2022-12-28T00:34:28.397Z,6.20
2022-12-28T00:39:30.183Z,6.20
2022-12-28T00:44:32.073Z,6.20
2022-12-28T00:49:33.863Z,6.30
2022-12-28T00:54:35.536Z,6.40
2022-12-28T00:59:37.161Z,6.30
2022-12-28T01:04:38.848Z,6.40
2022-12-28T01:09:40.652Z,6.40
2022-12-28T01:14:42.296Z,6.50
2022-12-28T01:19:48.778Z,6.50
2022-12-28T01:24:54.008Z,6.50
2022-12-28T01:29:55.658Z,6.60
2022-12-28T01:34:57.379Z,6.60
2022-12-28T01:39:59.412Z,6.70
2022-12-28T01:45:17.746Z,6.70
2022-12-28T01:50:24.545Z,6.70
2022-12-28T01:55:30.826Z,6.70
2022-12-28T02:00:33.332Z,6.80
2022-12-28T02:05:39.461Z,6.80
2022-12-28T02:10:45.711Z,6.80
2022-12-28T02:15:48.593Z,6.90
2022-12-28T02:21:09.329Z,7.00
2022-12-28T02:26:44.689Z,7.00
2022-12-28T02:32:05.120Z,7.00
2022-12-28T02:37:22.012Z,7.00
2022-12-28T02:42:25.384Z,7.10
2022-12-28T02:47:45.398Z,7.10
2022-12-28T02:53:32.757Z,7.10
2022-12-28T02:58:56.302Z,7.30
2022-12-28T03:04:21.815Z,7.50
2022-12-28T03:09:34.889Z,7.60
2022-12-28T03:14:45.146Z,7.70
2022-12-28T03:20:11.366Z,7.80
2022-12-28T03:25:34.631Z,7.90
2022-12-28T03:30:58.609Z,8.00
2022-12-28T03:36:12.625Z,8.00
2022-12-28T03:41:28.651Z,8.00
2022-12-28T03:46:47.593Z,8.10
2022-12-28T03:51:49.725Z,8.10
2022-12-28T03:56:52.084Z,8.10
2022-12-28T04:01:53.880Z,8.20
2022-12-28T04:06:55.724Z,8.20
2022-12-28T04:11:57.385Z,8.20
2022-12-28T04:17:01.901Z,8.20
2022-12-28T04:22:03.553Z,8.20
2022-12-28T04:27:05.146Z,8.20
2022-12-28T04:32:06.755Z,8.20
2022-12-28T04:37:08.387Z,8.20
2022-12-28T04:42:10.138Z,8.20
2022-12-28T04:47:11.989Z,8.30
2022-12-28T04:52:13.853Z,8.30
2022-12-28T04:57:15.552Z,8.30
2022-12-28T05:02:17.285Z,8.30
2022-12-28T05:07:18.916Z,8.30
2022-12-28T05:12:21.474Z,8.30
2022-12-28T05:17:23.215Z,8.30
2022-12-28T05:22:24.881Z,8.40
2022-12-28T05:27:26.478Z,8.40
2022-12-28T05:32:28.129Z,8.40
2022-12-28T05:37:29.738Z,8.40
2022-12-28T05:42:32.570Z,8.50
2022-12-28T05:47:34.291Z,8.50
2022-12-28T05:52:38.584Z,8.50
2022-12-28T05:57:40.558Z,8.50
2022-12-28T06:02:42.388Z,8.60
2022-12-28T06:07:44.083Z,8.60
2022-12-28T06:12:45.772Z,8.60
2022-12-28T06:17:47.399Z,8.60
2022-12-28T06:22:48.983Z,8.50
2022-12-28T06:27:50.596Z,8.60
2022-12-28T06:32:52.197Z,8.60
2022-12-28T06:37:53.843Z,8.60
2022-12-28T06:42:55.958Z,8.70
2022-12-28T06:47:57.510Z,8.70
2022-12-28T06:52:59.088Z,8.80
2022-12-28T06:58:00.732Z,8.80
2022-12-28T07:03:02.386Z,9.00
2022-12-28T07:08:09.136Z,9.00
2022-12-28T07:13:14.051Z,9.00
2022-12-28T07:18:15.887Z,9.00
2022-12-28T07:23:17.617Z,9.20
2022-12-28T07:28:19.305Z,9.20
2022-12-28T07:33:21.063Z,9.30
2022-12-28T07:38:22.797Z,9.30
2022-12-28T07:43:24.499Z,9.30
2022-12-28T07:48:26.280Z,9.30
2022-12-28T07:53:27.916Z,9.30
2022-12-28T07:58:29.676Z,9.30
2022-12-28T08:03:31.407Z,9.30
2022-12-28T08:08:38.350Z,9.30
2022-12-28T08:13:42.551Z,9.30
2022-12-28T08:18:44.414Z,9.30
2022-12-28T08:23:46.997Z,9.40
2022-12-28T08:28:50.286Z,9.40
2022-12-28T08:33:53.552Z,9.40
2022-12-28T08:38:55.823Z,9.50
2022-12-28T08:43:57.750Z,9.50
2022-12-28T08:49:00.635Z,9.50
2022-12-28T08:54:03.098Z,9.60
2022-12-28T08:59:05.920Z,9.60
2022-12-28T09:04:10.886Z,9.60
2022-12-28T09:09:15.414Z,9.70
2022-12-28T09:14:24.805Z,9.70
2022-12-28T09:19:31.179Z,9.70
2022-12-28T09:24:32.878Z,9.70
2022-12-28T09:29:34.581Z,9.80
2022-12-28T09:34:37.878Z,9.90
2022-12-28T09:39:40.120Z,9.90
2022-12-28T09:44:58.023Z,9.90
2022-12-28T09:50:24.781Z,9.90
2022-12-28T09:55:28.142Z,10.00
2022-12-28T10:00:41.363Z,10.00
2022-12-28T10:05:43.566Z,10.00
2022-12-28T10:10:49.234Z,10.10
2022-12-28T10:15:52.232Z,10.20
2022-12-28T10:20:55.601Z,10.20
2022-12-28T10:26:00.809Z,10.10
2022-12-28T10:31:08.624Z,10.20
2022-12-28T10:36:15.449Z,10.30
2022-12-28T10:41:20.291Z,10.30
2022-12-28T10:46:25.660Z,10.30
2022-12-28T10:51:29.607Z,10.40
2022-12-28T10:56:33.701Z,10.40
2022-12-28T11:01:35.544Z,10.50
2022-12-28T11:07:00.557Z,10.40
2022-12-28T11:12:23.239Z,10.50
2022-12-28T11:17:29.420Z,10.50
2022-12-28T11:22:33.231Z,10.60
2022-12-28T11:27:36.473Z,10.50
2022-12-28T11:32:44.578Z,10.50
2022-12-28T11:37:59.042Z,10.40
2022-12-28T11:43:00.596Z,10.40
2022-12-28T11:48:40.441Z,10.40
2022-12-28T11:53:45.228Z,10.40
2022-12-28T11:58:57.747Z,10.30
2022-12-28T12:03:59.523Z,10.40
2022-12-28T12:09:01.364Z,10.30
2022-12-28T12:14:03.406Z,10.30
2022-12-28T12:19:08.005Z,10.40
2022-12-28T12:24:26.716Z,10.40
2022-12-28T12:29:49.391Z,10.40
2022-12-28T12:35:01.802Z,10.40
2022-12-28T12:40:09.706Z,10.40
2022-12-28T12:45:33.201Z,10.40
2022-12-28T12:50:59.499Z,10.40
2022-12-28T12:56:04.326Z,10.40
2022-12-28T13:01:17.215Z,10.40
2022-12-28T13:06:24.599Z,10.40
2022-12-28T13:11:26.668Z,10.40
2022-12-28T13:16:31.068Z,10.40
2022-12-28T13:21:50.688Z,10.30
2022-12-28T13:26:53.965Z,10.30
2022-12-28T13:31:55.723Z,10.30
2022-12-28T13:37:00.593Z,10.40
2022-12-28T13:42:29.820Z,10.40
2022-12-28T13:47:43.210Z,10.40
2022-12-28T13:52:56.910Z,10.30
2022-12-28T13:58:03.638Z,10.30
2022-12-28T14:03:10.225Z,10.40
2022-12-28T14:08:12.063Z,10.40
2022-12-28T14:13:14.679Z,10.30
2022-12-28T14:18:18.174Z,10.40
2022-12-28T14:23:31.259Z,10.40
2022-12-28T14:28:44.006Z,10.30
2022-12-28T14:34:02.101Z,10.30
2022-12-28T14:39:05.476Z,10.30
2022-12-28T14:44:20.454Z,10.30
2022-12-28T14:49:28.363Z,10.30
2022-12-28T14:54:30.624Z,10.40
2022-12-28T14:59:36.842Z,10.40
2022-12-28T15:04:41.276Z,10.40
2022-12-28T15:09:42.936Z,10.50
2022-12-28T15:14:44.650Z,10.50
2022-12-28T15:19:46.438Z,10.40
2022-12-28T15:24:49.102Z,10.50
2022-12-28T15:30:07.726Z,10.50
2022-12-28T15:35:10.974Z,10.60
2022-12-28T15:40:12.718Z,10.50
2022-12-28T15:45:16.174Z,10.60
2022-12-28T15:50:18.123Z,10.50
2022-12-28T15:55:19.793Z,10.50
2022-12-28T16:00:21.466Z,10.50
2022-12-28T16:05:23.133Z,10.50
2022-12-28T16:10:24.787Z,10.50
2022-12-28T16:15:26.542Z,10.50
2022-12-28T16:20:29.793Z,10.50
2022-12-28T16:25:31.473Z,10.40
2022-12-28T16:30:49.272Z,10.40
2022-12-28T16:35:57.594Z,10.40
2022-12-28T16:41:01.313Z,10.50
2022-12-28T16:46:06.316Z,10.40
2022-12-28T16:51:08.457Z,10.40
2022-12-28T16:56:10.887Z,10.40
2022-12-28T17:01:12.907Z,10.40
2022-12-28T17:06:16.403Z,10.40
2022-12-28T17:11:18.165Z,10.50
2022-12-28T17:16:21.591Z,10.40
2022-12-28T17:21:23.467Z,10.50
2022-12-28T17:26:26.599Z,10.50
2022-12-28T17:31:28.616Z,10.60
2022-12-28T17:36:30.373Z,10.50
2022-12-28T17:41:32.080Z,10.70
2022-12-28T17:46:40.681Z,10.60
2022-12-28T17:51:44.482Z,10.70
2022-12-28T17:56:46.238Z,10.70
2022-12-28T18:01:48.236Z,10.70
2022-12-28T18:06:49.973Z,10.80
2022-12-28T18:11:51.675Z,10.80
2022-12-28T18:16:54.725Z,10.90
2022-12-28T18:21:56.551Z,10.90
2022-12-28T18:26:58.323Z,10.90
2022-12-28T18:32:00.151Z,10.90
2022-12-28T18:37:01.929Z,10.90
2022-12-28T18:42:04.068Z,11.00
2022-12-28T18:47:05.923Z,11.00
2022-12-28T18:52:07.963Z,11.00
2022-12-28T18:57:10.315Z,11.00
2022-12-28T19:02:19.023Z,11.00
2022-12-28T19:07:21.345Z,11.00
2022-12-28T19:12:23.048Z,11.10
2022-12-28T19:17:24.743Z,11.00
2022-12-28T19:22:26.493Z,11.10
2022-12-28T19:27:28.249Z,11.10
2022-12-28T19:32:30.747Z,11.10
2022-12-28T19:37:34.085Z,11.00
2022-12-28T19:42:35.863Z,11.00
2022-12-28T19:47:38.044Z,11.00
2022-12-28T19:52:39.758Z,11.00
2022-12-28T19:57:41.554Z,11.00
2022-12-28T20:02:43.371Z,11.00
2022-12-28T20:07:45.078Z,11.00
2022-12-28T20:12:46.878Z,11.10
2022-12-28T20:17:48.645Z,11.00
2022-12-28T20:22:50.399Z,11.00
2022-12-28T20:27:52.140Z,11.10
2022-12-28T20:32:53.852Z,11.10
2022-12-28T20:37:55.516Z,11.10
2022-12-28T20:43:15.939Z,11.10
2022-12-28T20:48:17.889Z,11.10
2022-12-28T20:53:19.664Z,11.10
2022-12-28T20:58:21.485Z,11.10
2022-12-28T21:03:23.265Z,11.10
2022-12-28T21:08:30.527Z,11.20
2022-12-28T21:13:32.955Z,11.20
2022-12-28T21:18:35.640Z,11.20
2022-12-28T21:23:37.292Z,11.20
2022-12-28T21:28:40.744Z,11.20
2022-12-28T21:33:42.765Z,11.20
2022-12-28T21:38:46.617Z,11.20
2022-12-28T21:43:48.372Z,11.30
2022-12-28T21:48:49.987Z,11.20
2022-12-28T21:53:52.159Z,11.40
2022-12-28T21:58:54.387Z,11.40
2022-12-28T22:04:14.624Z,11.50
2022-12-28T22:09:35.615Z,11.50
2022-12-28T22:14:37.593Z,11.60
2022-12-28T22:19:39.288Z,11.60
2022-12-28T22:24:40.925Z,11.60
2022-12-28T22:29:42.598Z,11.60
2022-12-28T22:34:44.354Z,11.70
2022-12-28T22:39:46.087Z,11.70
2022-12-28T22:44:47.732Z,11.70
2022-12-28T22:49:49.373Z,11.70
2022-12-28T22:54:51.059Z,11.70
2022-12-28T22:59:52.717Z,11.70
2022-12-28T23:04:54.417Z,11.80
2022-12-28T23:09:56.148Z,11.80
2022-12-28T23:15:18.263Z,11.90
2022-12-28T23:20:38.733Z,11.90
2022-12-28T23:25:59.588Z,11.80
2022-12-28T23:31:01.393Z,12.00
2022-12-28T23:36:04.202Z,12.00
2022-12-28T23:41:25.114Z,12.00
2022-12-28T23:46:26.910Z,12.00
2022-12-28T23:51:28.621Z,12.00
2022-12-28T23:56:30.352Z,12.10
